sensor_id;sensor_type;location;lat;lon;timestamp;P1;durP1;ratioP1;P2;durP2;ratioP2
21798;SDS011;24973;47.178;15.316;2022-10-16T00:01:06;41.70;;;25.97;;
21798;SDS011;24973;47.178;15.316;2022-10-16T00:03:59;35.70;;;22.93;;
21798;SDS011;24973;47.178;15.316;2022-10-16T00:06:49;44.30;;;24.77;;
21798;SDS011;24973;47.178;15.316;2022-10-16T00:09:38;41.33;;;24.57;;
21798;SDS011;24973;47.178;15.316;2022-10-16T00:12:26;38.87;;;25.63;;
21798;SDS011;24973;47.178;15.316;2022-10-16T00:15:15;42.30;;;24.23;;
21798;SDS011;24973;47.178;15.316;2022-10-16T00:18:04;37.40;;;24.87;;
21798;SDS011;24973;47.178;15.316;2022-10-16T00:21:00;41.03;;;24.17;;
21798;SDS011;24973;47.178;15.316;2022-10-16T00:23:51;42.90;;;25.80;;
21798;SDS011;24973;47.178;15.316;2022-10-16T00:26:40;37.87;;;23.30;;
21798;SDS011;24973;47.178;15.316;2022-10-16T00:29:29;36.90;;;24.53;;
21798;SDS011;24973;47.178;15.316;2022-10-16T00:32:18;36.40;;;24.57;;
21798;SDS011;24973;47.178;15.316;2022-10-16T00:35:07;37.47;;;23.97;;
21798;SDS011;24973;47.178;15.316;2022-10-16T00:37:57;37.70;;;24.17;;
21798;SDS011;24973;47.178;15.316;2022-10-16T00:40:46;38.43;;;25.13;;
21798;SDS011;24973;47.178;15.316;2022-10-16T00:43:36;38.17;;;24.90;;
21798;SDS011;24973;47.178;15.316;2022-10-16T00:46:28;44.30;;;24.07;;
21798;SDS011;24973;47.178;15.316;2022-10-16T00:49:22;37.63;;;22.07;;
21798;SDS011;24973;47.178;15.316;2022-10-16T00:52:10;33.03;;;22.40;;
21798;SDS011;24973;47.178;15.316;2022-10-16T00:55:03;31.80;;;22.83;;
21798;SDS011;24973;47.178;15.316;2022-10-16T00:57:53;32.17;;;21.50;;
21798;SDS011;24973;47.178;15.316;2022-10-16T01:00:42;35.27;;;23.30;;
21798;SDS011;24973;47.178;15.316;2022-10-16T01:03:31;34.27;;;22.20;;
21798;SDS011;24973;47.178;15.316;2022-10-16T01:06:24;32.37;;;21.87;;
21798;SDS011;24973;47.178;15.316;2022-10-16T01:09:21;32.43;;;21.07;;
21798;SDS011;24973;47.178;15.316;2022-10-16T01:12:20;35.07;;;22.07;;
21798;SDS011;24973;47.178;15.316;2022-10-16T01:15:21;28.63;;;21.33;;
21798;SDS011;24973;47.178;15.316;2022-10-16T01:18:16;37.17;;;19.93;;
21798;SDS011;24973;47.178;15.316;2022-10-16T01:21:12;31.33;;;20.90;;
21798;SDS011;24973;47.178;15.316;2022-10-16T01:24:06;32.60;;;21.03;;
21798;SDS011;24973;47.178;15.316;2022-10-16T01:27:08;34.87;;;21.77;;
21798;SDS011;24973;47.178;15.316;2022-10-16T01:29:59;31.37;;;21.77;;
21798;SDS011;24973;47.178;15.316;2022-10-16T01:32:55;30.63;;;20.17;;
21798;SDS011;24973;47.178;15.316;2022-10-16T01:35:51;32.20;;;19.47;;
21798;SDS011;24973;47.178;15.316;2022-10-16T01:38:43;28.53;;;18.23;;
21798;SDS011;24973;47.178;15.316;2022-10-16T01:41:36;32.90;;;18.83;;
21798;SDS011;24973;47.178;15.316;2022-10-16T01:44:32;29.87;;;18.70;;
21798;SDS011;24973;47.178;15.316;2022-10-16T01:47:23;27.27;;;17.23;;
21798;SDS011;24973;47.178;15.316;2022-10-16T01:50:14;31.23;;;18.17;;
21798;SDS011;24973;47.178;15.316;2022-10-16T01:53:06;26.37;;;16.87;;
21798;SDS011;24973;47.178;15.316;2022-10-16T01:55:59;26.47;;;16.93;;
21798;SDS011;24973;47.178;15.316;2022-10-16T01:58:52;29.67;;;17.17;;
21798;SDS011;24973;47.178;15.316;2022-10-16T02:01:47;26.23;;;17.77;;
21798;SDS011;24973;47.178;15.316;2022-10-16T02:04:40;28.20;;;18.60;;
21798;SDS011;24973;47.178;15.316;2022-10-16T02:07:33;31.63;;;19.30;;
21798;SDS011;24973;47.178;15.316;2022-10-16T02:10:22;25.97;;;17.17;;
21798;SDS011;24973;47.178;15.316;2022-10-16T02:13:14;28.50;;;19.00;;
21798;SDS011;24973;47.178;15.316;2022-10-16T02:16:06;25.97;;;18.30;;
21798;SDS011;24973;47.178;15.316;2022-10-16T02:18:56;28.67;;;18.57;;
21798;SDS011;24973;47.178;15.316;2022-10-16T02:21:46;26.70;;;18.77;;
21798;SDS011;24973;47.178;15.316;2022-10-16T02:24:41;29.70;;;18.77;;
21798;SDS011;24973;47.178;15.316;2022-10-16T02:27:40;29.23;;;18.20;;
21798;SDS011;24973;47.178;15.316;2022-10-16T02:30:36;25.07;;;15.83;;
21798;SDS011;24973;47.178;15.316;2022-10-16T02:33:30;29.17;;;17.93;;
21798;SDS011;24973;47.178;15.316;2022-10-16T02:36:22;28.87;;;17.63;;
21798;SDS011;24973;47.178;15.316;2022-10-16T02:39:11;22.73;;;15.23;;
21798;SDS011;24973;47.178;15.316;2022-10-16T02:42:01;24.50;;;15.87;;
21798;SDS011;24973;47.178;15.316;2022-10-16T02:44:50;31.67;;;17.50;;
21798;SDS011;24973;47.178;15.316;2022-10-16T02:47:39;27.77;;;16.83;;
21798;SDS011;24973;47.178;15.316;2022-10-16T02:50:28;27.93;;;14.80;;
21798;SDS011;24973;47.178;15.316;2022-10-16T02:53:18;26.27;;;17.23;;
21798;SDS011;24973;47.178;15.316;2022-10-16T02:56:07;23.17;;;16.13;;
21798;SDS011;24973;47.178;15.316;2022-10-16T02:58:55;23.67;;;16.63;;
21798;SDS011;24973;47.178;15.316;2022-10-16T03:01:44;23.70;;;15.63;;
21798;SDS011;24973;47.178;15.316;2022-10-16T03:04:33;22.20;;;13.73;;
21798;SDS011;24973;47.178;15.316;2022-10-16T03:07:22;25.90;;;15.20;;
21798;SDS011;24973;47.178;15.316;2022-10-16T03:10:12;26.17;;;15.50;;
21798;SDS011;24973;47.178;15.316;2022-10-16T03:13:01;25.40;;;16.40;;
21798;SDS011;24973;47.178;15.316;2022-10-16T03:15:50;25.47;;;15.60;;
21798;SDS011;24973;47.178;15.316;2022-10-16T03:18:39;22.60;;;15.63;;
21798;SDS011;24973;47.178;15.316;2022-10-16T03:21:27;33.47;;;15.70;;
21798;SDS011;24973;47.178;15.316;2022-10-16T03:24:16;20.10;;;13.50;;
21798;SDS011;24973;47.178;15.316;2022-10-16T03:27:06;18.47;;;13.43;;
21798;SDS011;24973;47.178;15.316;2022-10-16T03:29:55;16.50;;;13.33;;
21798;SDS011;24973;47.178;15.316;2022-10-16T03:32:44;18.77;;;12.87;;
21798;SDS011;24973;47.178;15.316;2022-10-16T03:35:33;18.87;;;13.00;;
21798;SDS011;24973;47.178;15.316;2022-10-16T03:38:22;21.10;;;14.20;;
21798;SDS011;24973;47.178;15.316;2022-10-16T03:41:11;26.23;;;13.23;;
21798;SDS011;24973;47.178;15.316;2022-10-16T03:44:01;23.93;;;16.30;;
21798;SDS011;24973;47.178;15.316;2022-10-16T03:46:50;19.40;;;14.10;;
21798;SDS011;24973;47.178;15.316;2022-10-16T03:49:38;32.97;;;16.83;;
21798;SDS011;24973;47.178;15.316;2022-10-16T03:52:27;31.53;;;17.23;;
21798;SDS011;24973;47.178;15.316;2022-10-16T03:55:16;20.10;;;13.67;;
21798;SDS011;24973;47.178;15.316;2022-10-16T03:58:04;20.93;;;12.43;;
21798;SDS011;24973;47.178;15.316;2022-10-16T04:00:55;22.57;;;13.00;;
21798;SDS011;24973;47.178;15.316;2022-10-16T04:03:43;19.00;;;14.07;;
21798;SDS011;24973;47.178;15.316;2022-10-16T04:06:32;17.93;;;11.90;;
21798;SDS011;24973;47.178;15.316;2022-10-16T04:09:21;21.20;;;13.20;;
21798;SDS011;24973;47.178;15.316;2022-10-16T04:12:10;18.23;;;11.07;;
21798;SDS011;24973;47.178;15.316;2022-10-16T04:14:58;21.57;;;12.50;;
21798;SDS011;24973;47.178;15.316;2022-10-16T04:17:49;20.07;;;13.50;;
21798;SDS011;24973;47.178;15.316;2022-10-16T04:20:38;20.20;;;12.27;;
21798;SDS011;24973;47.178;15.316;2022-10-16T04:23:26;19.33;;;12.77;;
21798;SDS011;24973;47.178;15.316;2022-10-16T04:26:15;21.10;;;13.23;;
21798;SDS011;24973;47.178;15.316;2022-10-16T04:29:04;20.77;;;13.93;;
21798;SDS011;24973;47.178;15.316;2022-10-16T04:31:53;24.70;;;14.57;;
21798;SDS011;24973;47.178;15.316;2022-10-16T04:34:43;27.13;;;14.63;;
21798;SDS011;24973;47.178;15.316;2022-10-16T04:37:32;19.10;;;12.37;;
21798;SDS011;24973;47.178;15.316;2022-10-16T04:40:21;20.03;;;10.70;;
21798;SDS011;24973;47.178;15.316;2022-10-16T04:43:10;17.53;;;11.40;;
21798;SDS011;24973;47.178;15.316;2022-10-16T04:45:59;20.33;;;14.47;;
21798;SDS011;24973;47.178;15.316;2022-10-16T04:48:48;24.57;;;14.80;;
21798;SDS011;24973;47.178;15.316;2022-10-16T04:51:38;28.37;;;15.63;;
21798;SDS011;24973;47.178;15.316;2022-10-16T04:54:27;24.00;;;12.33;;
21798;SDS011;24973;47.178;15.316;2022-10-16T04:57:16;17.73;;;10.73;;
21798;SDS011;24973;47.178;15.316;2022-10-16T05:00:05;15.50;;;10.97;;
21798;SDS011;24973;47.178;15.316;2022-10-16T05:02:55;16.70;;;11.33;;
21798;SDS011;24973;47.178;15.316;2022-10-16T05:05:46;18.97;;;12.40;;
21798;SDS011;24973;47.178;15.316;2022-10-16T05:08:36;21.77;;;11.90;;
21798;SDS011;24973;47.178;15.316;2022-10-16T05:11:25;18.63;;;11.30;;
21798;SDS011;24973;47.178;15.316;2022-10-16T05:14:14;20.53;;;11.87;;
21798;SDS011;24973;47.178;15.316;2022-10-16T05:17:03;16.80;;;11.90;;
21798;SDS011;24973;47.178;15.316;2022-10-16T05:19:51;18.40;;;12.43;;
21798;SDS011;24973;47.178;15.316;2022-10-16T05:22:40;14.73;;;10.60;;
21798;SDS011;24973;47.178;15.316;2022-10-16T05:25:31;20.63;;;11.67;;
21798;SDS011;24973;47.178;15.316;2022-10-16T05:28:19;17.50;;;11.83;;
21798;SDS011;24973;47.178;15.316;2022-10-16T05:31:09;17.13;;;11.23;;
21798;SDS011;24973;47.178;15.316;2022-10-16T05:33:58;15.13;;;10.30;;
21798;SDS011;24973;47.178;15.316;2022-10-16T05:36:47;18.03;;;12.33;;
21798;SDS011;24973;47.178;15.316;2022-10-16T05:39:36;17.07;;;10.97;;
21798;SDS011;24973;47.178;15.316;2022-10-16T05:42:27;23.97;;;13.27;;
21798;SDS011;24973;47.178;15.316;2022-10-16T05:45:16;21.53;;;11.40;;
21798;SDS011;24973;47.178;15.316;2022-10-16T05:48:04;16.80;;;9.73;;
21798;SDS011;24973;47.178;15.316;2022-10-16T05:50:56;20.67;;;12.27;;
21798;SDS011;24973;47.178;15.316;2022-10-16T05:53:46;18.37;;;12.60;;
21798;SDS011;24973;47.178;15.316;2022-10-16T05:56:35;15.07;;;9.87;;
21798;SDS011;24973;47.178;15.316;2022-10-16T05:59:25;14.43;;;10.60;;
21798;SDS011;24973;47.178;15.316;2022-10-16T06:02:14;18.08;;;13.02;;
21798;SDS011;24973;47.178;15.316;2022-10-16T06:05:03;23.07;;;11.17;;
21798;SDS011;24973;47.178;15.316;2022-10-16T06:07:52;18.40;;;10.90;;
21798;SDS011;24973;47.178;15.316;2022-10-16T06:10:41;19.57;;;11.47;;
21798;SDS011;24973;47.178;15.316;2022-10-16T06:13:30;17.93;;;11.47;;
21798;SDS011;24973;47.178;15.316;2022-10-16T06:16:20;16.77;;;11.37;;
21798;SDS011;24973;47.178;15.316;2022-10-16T06:19:12;17.30;;;10.20;;
21798;SDS011;24973;47.178;15.316;2022-10-16T06:22:02;16.07;;;10.70;;
21798;SDS011;24973;47.178;15.316;2022-10-16T06:24:51;15.63;;;10.53;;
21798;SDS011;24973;47.178;15.316;2022-10-16T06:27:41;12.30;;;8.70;;
21798;SDS011;24973;47.178;15.316;2022-10-16T06:30:29;17.77;;;10.07;;
21798;SDS011;24973;47.178;15.316;2022-10-16T06:33:20;12.80;;;9.40;;
21798;SDS011;24973;47.178;15.316;2022-10-16T06:36:09;16.63;;;10.27;;
21798;SDS011;24973;47.178;15.316;2022-10-16T06:39:00;11.37;;;7.97;;
21798;SDS011;24973;47.178;15.316;2022-10-16T06:41:49;17.40;;;8.50;;
21798;SDS011;24973;47.178;15.316;2022-10-16T06:44:39;16.10;;;10.07;;
21798;SDS011;24973;47.178;15.316;2022-10-16T06:47:28;13.93;;;9.10;;
21798;SDS011;24973;47.178;15.316;2022-10-16T06:50:18;15.47;;;9.90;;
21798;SDS011;24973;47.178;15.316;2022-10-16T06:53:07;15.90;;;9.10;;
21798;SDS011;24973;47.178;15.316;2022-10-16T06:55:56;12.00;;;9.10;;
21798;SDS011;24973;47.178;15.316;2022-10-16T06:58:45;16.07;;;11.17;;
21798;SDS011;24973;47.178;15.316;2022-10-16T07:01:35;18.20;;;11.23;;
21798;SDS011;24973;47.178;15.316;2022-10-16T07:04:23;15.87;;;11.63;;
21798;SDS011;24973;47.178;15.316;2022-10-16T07:07:14;19.57;;;11.73;;
21798;SDS011;24973;47.178;15.316;2022-10-16T07:10:03;15.63;;;10.10;;
21798;SDS011;24973;47.178;15.316;2022-10-16T07:12:52;12.17;;;9.27;;
21798;SDS011;24973;47.178;15.316;2022-10-16T07:15:43;17.70;;;10.90;;
21798;SDS011;24973;47.178;15.316;2022-10-16T07:18:39;16.20;;;10.47;;
21798;SDS011;24973;47.178;15.316;2022-10-16T07:21:29;18.13;;;10.80;;
21798;SDS011;24973;47.178;15.316;2022-10-16T07:24:24;23.17;;;10.23;;
21798;SDS011;24973;47.178;15.316;2022-10-16T07:27:13;21.13;;;12.90;;
21798;SDS011;24973;47.178;15.316;2022-10-16T07:30:03;18.13;;;13.37;;
21798;SDS011;24973;47.178;15.316;2022-10-16T07:32:53;17.67;;;12.73;;
21798;SDS011;24973;47.178;15.316;2022-10-16T07:35:49;21.23;;;15.23;;
21798;SDS011;24973;47.178;15.316;2022-10-16T07:38:38;23.50;;;15.00;;
21798;SDS011;24973;47.178;15.316;2022-10-16T07:41:30;25.13;;;17.23;;
21798;SDS011;24973;47.178;15.316;2022-10-16T07:44:23;22.27;;;14.87;;
21798;SDS011;24973;47.178;15.316;2022-10-16T07:47:11;19.43;;;15.00;;
21798;SDS011;24973;47.178;15.316;2022-10-16T07:50:00;20.13;;;14.73;;
21798;SDS011;24973;47.178;15.316;2022-10-16T07:52:49;21.23;;;14.67;;
21798;SDS011;24973;47.178;15.316;2022-10-16T07:55:38;21.70;;;14.27;;
21798;SDS011;24973;47.178;15.316;2022-10-16T07:58:29;18.33;;;13.17;;
21798;SDS011;24973;47.178;15.316;2022-10-16T08:01:18;21.23;;;14.33;;
21798;SDS011;24973;47.178;15.316;2022-10-16T08:04:07;23.50;;;13.57;;
21798;SDS011;24973;47.178;15.316;2022-10-16T08:06:57;24.00;;;14.53;;
21798;SDS011;24973;47.178;15.316;2022-10-16T08:12:37;22.33;;;13.93;;
21798;SDS011;24973;47.178;15.316;2022-10-16T08:15:27;19.63;;;13.73;;
21798;SDS011;24973;47.178;15.316;2022-10-16T08:18:16;18.93;;;13.13;;
21798;SDS011;24973;47.178;15.316;2022-10-16T08:21:07;19.50;;;13.33;;
21798;SDS011;24973;47.178;15.316;2022-10-16T08:24:02;17.20;;;12.50;;
21798;SDS011;24973;47.178;15.316;2022-10-16T08:26:53;19.00;;;12.97;;
21798;SDS011;24973;47.178;15.316;2022-10-16T08:29:42;16.23;;;12.63;;
21798;SDS011;24973;47.178;15.316;2022-10-16T08:32:32;16.43;;;11.97;;
21798;SDS011;24973;47.178;15.316;2022-10-16T08:35:20;12.83;;;10.43;;
21798;SDS011;24973;47.178;15.316;2022-10-16T08:38:09;15.07;;;11.47;;
21798;SDS011;24973;47.178;15.316;2022-10-16T08:41:01;15.10;;;11.40;;
21798;SDS011;24973;47.178;15.316;2022-10-16T08:44:18;15.40;;;12.30;;
21798;SDS011;24973;47.178;15.316;2022-10-16T08:47:38;18.00;;;10.80;;
21798;SDS011;24973;47.178;15.316;2022-10-16T08:50:37;16.43;;;11.60;;
21798;SDS011;24973;47.178;15.316;2022-10-16T08:53:28;17.63;;;11.77;;
21798;SDS011;24973;47.178;15.316;2022-10-16T08:56:25;14.93;;;11.20;;
21798;SDS011;24973;47.178;15.316;2022-10-16T08:59:14;13.80;;;10.07;;
21798;SDS011;24973;47.178;15.316;2022-10-16T09:02:08;16.73;;;11.73;;
21798;SDS011;24973;47.178;15.316;2022-10-16T09:05:21;14.47;;;10.67;;
21798;SDS011;24973;47.178;15.316;2022-10-16T09:08:23;17.97;;;12.03;;
21798;SDS011;24973;47.178;15.316;2022-10-16T09:11:26;15.57;;;11.97;;
21798;SDS011;24973;47.178;15.316;2022-10-16T09:14:34;19.20;;;11.30;;
21798;SDS011;24973;47.178;15.316;2022-10-16T09:17:42;21.70;;;12.47;;
21798;SDS011;24973;47.178;15.316;2022-10-16T09:20:44;16.10;;;11.10;;
21798;SDS011;24973;47.178;15.316;2022-10-16T09:23:38;13.03;;;10.27;;
21798;SDS011;24973;47.178;15.316;2022-10-16T09:26:27;15.33;;;11.10;;
21798;SDS011;24973;47.178;15.316;2022-10-16T09:29:17;13.10;;;10.37;;
21798;SDS011;24973;47.178;15.316;2022-10-16T09:32:10;15.13;;;11.00;;
21798;SDS011;24973;47.178;15.316;2022-10-16T09:35:02;17.77;;;11.40;;
21798;SDS011;24973;47.178;15.316;2022-10-16T09:37:54;14.67;;;10.13;;
21798;SDS011;24973;47.178;15.316;2022-10-16T09:40:43;16.47;;;11.37;;
21798;SDS011;24973;47.178;15.316;2022-10-16T09:43:34;16.00;;;11.13;;
21798;SDS011;24973;47.178;15.316;2022-10-16T09:46:29;15.90;;;10.37;;
21798;SDS011;24973;47.178;15.316;2022-10-16T09:49:21;11.70;;;9.90;;
21798;SDS011;24973;47.178;15.316;2022-10-16T09:52:12;12.93;;;10.17;;
21798;SDS011;24973;47.178;15.316;2022-10-16T09:55:12;13.93;;;10.07;;
21798;SDS011;24973;47.178;15.316;2022-10-16T09:58:11;14.00;;;10.40;;
21798;SDS011;24973;47.178;15.316;2022-10-16T10:01:01;14.83;;;10.33;;
21798;SDS011;24973;47.178;15.316;2022-10-16T10:03:50;13.23;;;9.60;;
21798;SDS011;24973;47.178;15.316;2022-10-16T10:06:47;13.10;;;9.23;;
21798;SDS011;24973;47.178;15.316;2022-10-16T10:09:39;14.87;;;10.13;;
21798;SDS011;24973;47.178;15.316;2022-10-16T10:12:33;14.47;;;11.13;;
21798;SDS011;24973;47.178;15.316;2022-10-16T10:15:33;14.07;;;9.00;;
21798;SDS011;24973;47.178;15.316;2022-10-16T10:18:29;15.33;;;10.70;;
21798;SDS011;24973;47.178;15.316;2022-10-16T10:21:20;11.93;;;8.70;;
21798;SDS011;24973;47.178;15.316;2022-10-16T10:24:11;12.90;;;9.93;;
21798;SDS011;24973;47.178;15.316;2022-10-16T10:27:03;13.30;;;9.07;;
21798;SDS011;24973;47.178;15.316;2022-10-16T10:30:01;11.97;;;10.43;;
21798;SDS011;24973;47.178;15.316;2022-10-16T10:33:02;11.90;;;9.87;;
21798;SDS011;24973;47.178;15.316;2022-10-16T10:36:09;9.03;;;8.13;;
21798;SDS011;24973;47.178;15.316;2022-10-16T10:39:08;11.27;;;9.03;;
21798;SDS011;24973;47.178;15.316;2022-10-16T10:42:08;10.67;;;8.77;;
21798;SDS011;24973;47.178;15.316;2022-10-16T10:45:20;9.90;;;8.83;;
21798;SDS011;24973;47.178;15.316;2022-10-16T10:48:18;13.00;;;8.83;;
21798;SDS011;24973;47.178;15.316;2022-10-16T10:51:23;14.83;;;9.40;;
21798;SDS011;24973;47.178;15.316;2022-10-16T10:54:20;8.93;;;8.00;;
21798;SDS011;24973;47.178;15.316;2022-10-16T10:57:23;8.70;;;7.07;;
21798;SDS011;24973;47.178;15.316;2022-10-16T11:00:26;9.30;;;7.90;;
21798;SDS011;24973;47.178;15.316;2022-10-16T11:03:24;9.93;;;7.37;;
21798;SDS011;24973;47.178;15.316;2022-10-16T11:06:28;9.10;;;7.43;;
21798;SDS011;24973;47.178;15.316;2022-10-16T11:09:21;11.43;;;7.70;;
21798;SDS011;24973;47.178;15.316;2022-10-16T11:12:14;9.33;;;7.80;;
21798;SDS011;24973;47.178;15.316;2022-10-16T11:15:11;10.73;;;8.25;;
21798;SDS011;24973;47.178;15.316;2022-10-16T11:18:06;8.18;;;7.13;;
21798;SDS011;24973;47.178;15.316;2022-10-16T11:21:00;11.85;;;8.93;;
21798;SDS011;24973;47.178;15.316;2022-10-16T11:23:56;10.57;;;8.02;;
21798;SDS011;24973;47.178;15.316;2022-10-16T11:26:48;9.70;;;8.10;;
21798;SDS011;24973;47.178;15.316;2022-10-16T11:29:42;8.80;;;7.38;;
21798;SDS011;24973;47.178;15.316;2022-10-16T11:32:38;11.27;;;8.68;;
21798;SDS011;24973;47.178;15.316;2022-10-16T11:35:47;12.43;;;8.45;;
21798;SDS011;24973;47.178;15.316;2022-10-16T11:38:43;9.43;;;7.47;;
21798;SDS011;24973;47.178;15.316;2022-10-16T11:41:42;9.35;;;8.18;;
21798;SDS011;24973;47.178;15.316;2022-10-16T11:44:39;8.80;;;7.88;;
21798;SDS011;24973;47.178;15.316;2022-10-16T11:47:40;9.05;;;8.05;;
21798;SDS011;24973;47.178;15.316;2022-10-16T11:50:43;10.00;;;7.93;;
21798;SDS011;24973;47.178;15.316;2022-10-16T11:53:43;10.20;;;9.10;;
21798;SDS011;24973;47.178;15.316;2022-10-16T11:56:39;12.13;;;8.32;;
21798;SDS011;24973;47.178;15.316;2022-10-16T11:59:32;10.00;;;8.48;;
21798;SDS011;24973;47.178;15.316;2022-10-16T12:02:31;10.52;;;8.15;;
21798;SDS011;24973;47.178;15.316;2022-10-16T12:05:34;10.07;;;9.07;;
21798;SDS011;24973;47.178;15.316;2022-10-16T12:08:40;8.10;;;7.28;;
21798;SDS011;24973;47.178;15.316;2022-10-16T12:11:33;9.38;;;7.90;;
21798;SDS011;24973;47.178;15.316;2022-10-16T12:14:36;12.68;;;9.00;;
21798;SDS011;24973;47.178;15.316;2022-10-16T12:17:47;10.75;;;7.47;;
21798;SDS011;24973;47.178;15.316;2022-10-16T12:20:38;10.52;;;7.90;;
21798;SDS011;24973;47.178;15.316;2022-10-16T12:23:36;9.18;;;8.27;;
21798;SDS011;24973;47.178;15.316;2022-10-16T12:26:36;7.97;;;7.15;;
21798;SDS011;24973;47.178;15.316;2022-10-16T12:29:31;9.13;;;7.55;;
21798;SDS011;24973;47.178;15.316;2022-10-16T12:32:26;9.50;;;7.97;;
21798;SDS011;24973;47.178;15.316;2022-10-16T12:35:34;8.93;;;8.02;;
21798;SDS011;24973;47.178;15.316;2022-10-16T12:38:33;9.05;;;8.02;;
21798;SDS011;24973;47.178;15.316;2022-10-16T12:41:27;9.63;;;8.43;;
21798;SDS011;24973;47.178;15.316;2022-10-16T12:44:21;10.07;;;8.68;;
21798;SDS011;24973;47.178;15.316;2022-10-16T12:47:19;10.80;;;9.70;;
21798;SDS011;24973;47.178;15.316;2022-10-16T12:50:23;10.35;;;9.27;;
21798;SDS011;24973;47.178;15.316;2022-10-16T12:53:21;15.02;;;10.02;;
21798;SDS011;24973;47.178;15.316;2022-10-16T12:56:15;10.32;;;9.23;;
21798;SDS011;24973;47.178;15.316;2022-10-16T12:59:14;11.13;;;10.02;;
21798;SDS011;24973;47.178;15.316;2022-10-16T13:02:26;11.63;;;9.80;;
21798;SDS011;24973;47.178;15.316;2022-10-16T13:05:43;11.57;;;9.30;;
21798;SDS011;24973;47.178;15.316;2022-10-16T13:08:50;11.60;;;10.07;;
21798;SDS011;24973;47.178;15.316;2022-10-16T13:12:04;11.18;;;9.95;;
21798;SDS011;24973;47.178;15.316;2022-10-16T13:15:16;11.73;;;10.55;;
21798;SDS011;24973;47.178;15.316;2022-10-16T13:18:18;12.63;;;11.35;;
21798;SDS011;24973;47.178;15.316;2022-10-16T13:21:17;11.63;;;10.52;;
21798;SDS011;24973;47.178;15.316;2022-10-16T13:24:20;12.25;;;10.98;;
21798;SDS011;24973;47.178;15.316;2022-10-16T13:27:26;12.15;;;10.73;;
21798;SDS011;24973;47.178;15.316;2022-10-16T13:30:26;13.75;;;11.50;;
21798;SDS011;24973;47.178;15.316;2022-10-16T13:33:17;11.43;;;10.10;;
21798;SDS011;24973;47.178;15.316;2022-10-16T13:36:17;13.85;;;10.00;;
21798;SDS011;24973;47.178;15.316;2022-10-16T13:39:10;12.00;;;10.32;;
21798;SDS011;24973;47.178;15.316;2022-10-16T13:42:04;11.77;;;10.68;;
21798;SDS011;24973;47.178;15.316;2022-10-16T13:45:00;12.88;;;11.23;;
21798;SDS011;24973;47.178;15.316;2022-10-16T13:47:49;10.90;;;9.82;;
21798;SDS011;24973;47.178;15.316;2022-10-16T13:51:05;11.63;;;10.43;;
21798;SDS011;24973;47.178;15.316;2022-10-16T13:54:00;11.95;;;10.75;;
21798;SDS011;24973;47.178;15.316;2022-10-16T13:56:49;13.02;;;10.48;;
21798;SDS011;24973;47.178;15.316;2022-10-16T13:59:48;10.27;;;9.27;;
21798;SDS011;24973;47.178;15.316;2022-10-16T14:02:42;12.95;;;9.95;;
21798;SDS011;24973;47.178;15.316;2022-10-16T14:05:34;10.70;;;9.45;;
21798;SDS011;24973;47.178;15.316;2022-10-16T14:08:23;10.57;;;9.43;;
21798;SDS011;24973;47.178;15.316;2022-10-16T14:11:19;11.40;;;10.15;;
21798;SDS011;24973;47.178;15.316;2022-10-16T14:14:10;12.00;;;9.82;;
21798;SDS011;24973;47.178;15.316;2022-10-16T14:17:00;11.85;;;10.18;;
21798;SDS011;24973;47.178;15.316;2022-10-16T14:19:53;11.63;;;10.40;;
21798;SDS011;24973;47.178;15.316;2022-10-16T14:22:45;10.93;;;9.82;;
21798;SDS011;24973;47.178;15.316;2022-10-16T14:25:33;10.10;;;9.10;;
21798;SDS011;24973;47.178;15.316;2022-10-16T14:28:23;11.48;;;10.10;;
21798;SDS011;24973;47.178;15.316;2022-10-16T14:31:25;13.93;;;10.27;;
21798;SDS011;24973;47.178;15.316;2022-10-16T14:34:24;14.10;;;11.65;;
21798;SDS011;24973;47.178;15.316;2022-10-16T14:37:18;15.20;;;11.57;;
21798;SDS011;24973;47.178;15.316;2022-10-16T14:40:13;12.18;;;9.55;;
21798;SDS011;24973;47.178;15.316;2022-10-16T14:43:03;10.30;;;9.30;;
21798;SDS011;24973;47.178;15.316;2022-10-16T14:45:53;10.73;;;9.60;;
21798;SDS011;24973;47.178;15.316;2022-10-16T14:48:45;11.77;;;9.82;;
21798;SDS011;24973;47.178;15.316;2022-10-16T14:51:37;15.38;;;10.20;;
21798;SDS011;24973;47.178;15.316;2022-10-16T14:54:28;13.57;;;9.90;;
21798;SDS011;24973;47.178;15.316;2022-10-16T14:57:18;13.30;;;10.07;;
21798;SDS011;24973;47.178;15.316;2022-10-16T15:00:13;11.35;;;9.93;;
21798;SDS011;24973;47.178;15.316;2022-10-16T15:03:06;10.02;;;9.00;;
21798;SDS011;24973;47.178;15.316;2022-10-16T15:05:54;14.60;;;10.25;;
21798;SDS011;24973;47.178;15.316;2022-10-16T15:08:43;11.85;;;10.65;;
21798;SDS011;24973;47.178;15.316;2022-10-16T15:11:33;17.40;;;10.68;;
21798;SDS011;24973;47.178;15.316;2022-10-16T15:14:22;14.80;;;10.93;;
21798;SDS011;24973;47.178;15.316;2022-10-16T15:17:11;15.70;;;10.80;;
21798;SDS011;24973;47.178;15.316;2022-10-16T15:20:00;15.63;;;11.07;;
21798;SDS011;24973;47.178;15.316;2022-10-16T15:22:48;17.53;;;12.60;;
21798;SDS011;24973;47.178;15.316;2022-10-16T15:25:38;15.97;;;10.97;;
21798;SDS011;24973;47.178;15.316;2022-10-16T15:28:31;13.77;;;10.13;;
21798;SDS011;24973;47.178;15.316;2022-10-16T15:31:21;18.87;;;11.90;;
21798;SDS011;24973;47.178;15.316;2022-10-16T15:34:11;14.37;;;11.37;;
21798;SDS011;24973;47.178;15.316;2022-10-16T15:37:02;13.17;;;11.03;;
21798;SDS011;24973;47.178;15.316;2022-10-16T15:39:51;15.37;;;11.03;;
21798;SDS011;24973;47.178;15.316;2022-10-16T15:42:40;14.20;;;10.77;;
21798;SDS011;24973;47.178;15.316;2022-10-16T15:45:30;17.30;;;11.70;;
21798;SDS011;24973;47.178;15.316;2022-10-16T15:48:19;19.90;;;10.73;;
21798;SDS011;24973;47.178;15.316;2022-10-16T15:51:07;17.93;;;13.23;;
21798;SDS011;24973;47.178;15.316;2022-10-16T15:53:56;13.93;;;12.23;;
21798;SDS011;24973;47.178;15.316;2022-10-16T15:56:48;19.40;;;11.47;;
21798;SDS011;24973;47.178;15.316;2022-10-16T15:59:36;16.27;;;12.20;;
21798;SDS011;24973;47.178;15.316;2022-10-16T16:02:26;18.50;;;12.25;;
21798;SDS011;24973;47.178;15.316;2022-10-16T16:05:17;23.90;;;11.83;;
21798;SDS011;24973;47.178;15.316;2022-10-16T16:08:06;19.53;;;13.13;;
21798;SDS011;24973;47.178;15.316;2022-10-16T16:10:58;16.43;;;13.33;;
21798;SDS011;24973;47.178;15.316;2022-10-16T16:13:47;16.47;;;13.00;;
21798;SDS011;24973;47.178;15.316;2022-10-16T16:16:35;20.40;;;14.20;;
21798;SDS011;24973;47.178;15.316;2022-10-16T16:19:26;25.60;;;15.13;;
21798;SDS011;24973;47.178;15.316;2022-10-16T16:22:15;20.10;;;13.87;;
21798;SDS011;24973;47.178;15.316;2022-10-16T16:25:04;23.40;;;14.23;;
21798;SDS011;24973;47.178;15.316;2022-10-16T16:27:53;22.83;;;13.10;;
21798;SDS011;24973;47.178;15.316;2022-10-16T16:30:42;22.57;;;12.43;;
21798;SDS011;24973;47.178;15.316;2022-10-16T16:33:30;20.47;;;13.20;;
21798;SDS011;24973;47.178;15.316;2022-10-16T16:36:21;17.00;;;12.53;;
21798;SDS011;24973;47.178;15.316;2022-10-16T16:39:14;19.17;;;12.63;;
21798;SDS011;24973;47.178;15.316;2022-10-16T16:42:03;17.63;;;12.57;;
21798;SDS011;24973;47.178;15.316;2022-10-16T16:44:54;16.67;;;12.87;;